sensor_id;sensor_type;location;lat;lon;timestamp;temperature;humidity
3678;DHT22;1855;50.934;6.958;2024-03-17T05:29:29;5.30;99.90
3678;DHT22;1855;50.934;6.958;2024-03-17T05:31:56;5.30;99.90
3678;DHT22;1855;50.934;6.958;2024-03-17T05:34:23;5.30;99.90
3678;DHT22;1855;50.934;6.958;2024-03-17T05:36:50;5.20;99.90
3678;DHT22;1855;50.934;6.958;2024-03-17T05:39:17;5.20;99.90
3678;DHT22;1855;50.934;6.958;2024-03-17T05:41:45;5.20;99.90
3678;DHT22;1855;50.934;6.958;2024-03-17T05:44:14;5.20;99.90
3678;DHT22;1855;50.934;6.958;2024-03-17T05:46:42;5.20;99.90
3678;DHT22;1855;50.934;6.958;2024-03-17T05:49:09;5.20;99.90
3678;DHT22;1855;50.934;6.958;2024-03-17T05:51:35;5.20;99.90
3678;DHT22;1855;50.934;6.958;2024-03-17T05:54:02;5.10;99.90
3678;DHT22;1855;50.934;6.958;2024-03-17T05:56:29;5.10;99.90
3678;DHT22;1855;50.934;6.958;2024-03-17T05:58:56;5.20;99.90
3678;DHT22;1855;50.934;6.958;2024-03-17T06:01:22;5.10;99.90
3678;DHT22;1855;50.934;6.958;2024-03-17T06:03:50;5.20;99.90
3678;DHT22;1855;50.934;6.958;2024-03-17T06:06:17;5.10;99.90
3678;DHT22;1855;50.934;6.958;2024-03-17T06:08:44;5.10;99.90
3678;DHT22;1855;50.934;6.958;2024-03-17T06:11:11;5.10;99.90
3678;DHT22;1855;50.934;6.958;2024-03-17T06:13:37;5.10;99.90
3678;DHT22;1855;50.934;6.958;2024-03-17T06:16:04;5.10;99.90
3678;DHT22;1855;50.934;6.958;2024-03-17T06:18:31;5.10;99.90
3678;DHT22;1855;50.934;6.958;2024-03-17T06:20:59;5.10;99.90
3678;DHT22;1855;50.934;6.958;2024-03-17T06:23:26;5.10;99.90
3678;DHT22;1855;50.934;6.958;2024-03-17T06:25:53;5.10;99.90
3678;DHT22;1855;50.934;6.958;2024-03-17T06:28:20;5.10;99.90
3678;DHT22;1855;50.934;6.958;2024-03-17T06:30:55;5.10;99.90
3678;DHT22;1855;50.934;6.958;2024-03-17T06:33:24;5.10;99.90
3678;DHT22;1855;50.934;6.958;2024-03-17T06:35:51;5.10;99.90
3678;DHT22;1855;50.934;6.958;2024-03-17T06:38:19;5.10;99.90
3678;DHT22;1855;50.934;6.958;2024-03-17T06:40:49;5.10;99.90
3678;DHT22;1855;50.934;6.958;2024-03-17T06:43:16;5.10;99.90
3678;DHT22;1855;50.934;6.958;2024-03-17T06:45:43;5.10;99.90
3678;DHT22;1855;50.934;6.958;2024-03-17T06:48:10;5.20;99.90
3678;DHT22;1855;50.934;6.958;2024-03-17T06:50:38;5.30;99.90
3678;DHT22;1855;50.934;6.958;2024-03-17T06:53:06;5.30;99.90
3678;DHT22;1855;50.934;6.958;2024-03-17T06:55:35;5.30;99.90
3678;DHT22;1855;50.934;6.958;2024-03-17T06:58:02;5.30;99.90
3678;DHT22;1855;50.934;6.958;2024-03-17T07:00:29;5.40;99.90
3678;DHT22;1855;50.934;6.958;2024-03-17T07:02:55;5.50;99.90
3678;DHT22;1855;50.934;6.958;2024-03-17T07:05:23;5.60;99.90
3678;DHT22;1855;50.934;6.958;2024-03-17T07:07:50;5.60;99.90
3678;DHT22;1855;50.934;6.958;2024-03-17T07:10:17;5.60;99.90
3678;DHT22;1855;50.934;6.958;2024-03-17T07:12:45;5.70;99.90
3678;DHT22;1855;50.934;6.958;2024-03-17T07:15:12;5.80;99.90
3678;DHT22;1855;50.934;6.958;2024-03-17T07:17:39;5.90;99.90
3678;DHT22;1855;50.934;6.958;2024-03-17T07:20:06;6.10;99.90
3678;DHT22;1855;50.934;6.958;2024-03-17T07:22:34;6.10;99.90
3678;DHT22;1855;50.934;6.958;2024-03-17T07:25:01;6.20;99.90
3678;DHT22;1855;50.934;6.958;2024-03-17T07:27:28;6.30;99.90
3678;DHT22;1855;50.934;6.958;2024-03-17T07:29:56;6.40;99.90
3678;DHT22;1855;50.934;6.958;2024-03-17T07:32:23;6.60;99.90
3678;DHT22;1855;50.934;6.958;2024-03-17T07:34:49;6.80;99.90
3678;DHT22;1855;50.934;6.958;2024-03-17T07:37:16;6.80;99.90
3678;DHT22;1855;50.934;6.958;2024-03-17T07:39:43;7.00;99.90
3678;DHT22;1855;50.934;6.958;2024-03-17T07:42:10;7.10;99.90
3678;DHT22;1855;50.934;6.958;2024-03-17T07:44:38;7.20;99.90
3678;DHT22;1855;50.934;6.958;2024-03-17T07:47:06;7.40;99.90
3678;DHT22;1855;50.934;6.958;2024-03-17T07:49:33;7.50;99.90
3678;DHT22;1855;50.934;6.958;2024-03-17T07:52:00;7.60;99.90
3678;DHT22;1855;50.934;6.958;2024-03-17T07:54:27;7.60;99.90
3678;DHT22;1855;50.934;6.958;2024-03-17T07:56:54;7.70;99.90
3678;DHT22;1855;50.934;6.958;2024-03-17T07:59:21;7.70;99.90
3678;DHT22;1855;50.934;6.958;2024-03-17T08:01:47;7.90;99.90
3678;DHT22;1855;50.934;6.958;2024-03-17T08:04:15;8.00;99.90
3678;DHT22;1855;50.934;6.958;2024-03-17T08:06:42;8.10;99.90
3678;DHT22;1855;50.934;6.958;2024-03-17T08:09:09;8.30;99.90
3678;DHT22;1855;50.934;6.958;2024-03-17T08:11:37;8.40;99.90
3678;DHT22;1855;50.934;6.958;2024-03-17T08:14:09;8.50;99.90
3678;DHT22;1855;50.934;6.958;2024-03-17T08:16:35;8.70;99.90
3678;DHT22;1855;50.934;6.958;2024-03-17T08:19:02;8.80;99.90
3678;DHT22;1855;50.934;6.958;2024-03-17T08:21:30;8.90;99.90
3678;DHT22;1855;50.934;6.958;2024-03-17T08:23:58;9.10;99.90
3678;DHT22;1855;50.934;6.958;2024-03-17T08:26:24;9.10;99.90
3678;DHT22;1855;50.934;6.958;2024-03-17T08:28:51;9.20;99.90
3678;DHT22;1855;50.934;6.958;2024-03-17T08:31:18;9.20;99.90
3678;DHT22;1855;50.934;6.958;2024-03-17T08:33:45;9.20;99.90
3678;DHT22;1855;50.934;6.958;2024-03-17T08:36:16;9.20;99.90
3678;DHT22;1855;50.934;6.958;2024-03-17T08:38:45;9.40;99.90
3678;DHT22;1855;50.934;6.958;2024-03-17T08:41:13;9.40;99.90
3678;DHT22;1855;50.934;6.958;2024-03-17T08:43:40;9.50;99.90
3678;DHT22;1855;50.934;6.958;2024-03-17T08:46:09;9.60;99.90
3678;DHT22;1855;50.934;6.958;2024-03-17T08:48:37;9.70;99.90
3678;DHT22;1855;50.934;6.958;2024-03-17T08:51:05;10.00;99.90
3678;DHT22;1855;50.934;6.958;2024-03-17T08:53:32;10.00;99.90
3678;DHT22;1855;50.934;6.958;2024-03-17T08:56:03;10.00;99.90
3678;DHT22;1855;50.934;6.958;2024-03-17T08:58:30;9.90;99.90
3678;DHT22;1855;50.934;6.958;2024-03-17T09:00:56;9.90;99.90
3678;DHT22;1855;50.934;6.958;2024-03-17T09:03:23;9.90;99.90
3678;DHT22;1855;50.934;6.958;2024-03-17T09:05:52;10.00;99.90
3678;DHT22;1855;50.934;6.958;2024-03-17T09:08:21;10.00;99.90
3678;DHT22;1855;50.934;6.958;2024-03-17T09:10:48;10.00;99.90
3678;DHT22;1855;50.934;6.958;2024-03-17T09:13:18;9.90;99.90
3678;DHT22;1855;50.934;6.958;2024-03-17T09:15:52;9.90;99.90
3678;DHT22;1855;50.934;6.958;2024-03-17T09:18:19;9.90;99.90
3678;DHT22;1855;50.934;6.958;2024-03-17T09:20:46;10.10;99.90
3678;DHT22;1855;50.934;6.958;2024-03-17T09:23:21;10.20;99.90
3678;DHT22;1855;50.934;6.958;2024-03-17T09:25:55;10.20;99.90
3678;DHT22;1855;50.934;6.958;2024-03-17T09:28:23;10.30;99.90
3678;DHT22;1855;50.934;6.958;2024-03-17T09:30:50;10.30;99.90
3678;DHT22;1855;50.934;6.958;2024-03-17T09:33:18;10.30;99.90
3678;DHT22;1855;50.934;6.958;2024-03-17T09:35:52;10.30;99.90
3678;DHT22;1855;50.934;6.958;2024-03-17T09:38:19;10.40;99.90
3678;DHT22;1855;50.934;6.958;2024-03-17T09:40:47;10.60;99.90
3678;DHT22;1855;50.934;6.958;2024-03-17T09:43:15;10.70;99.90
3678;DHT22;1855;50.934;6.958;2024-03-17T09:45:43;10.70;99.90
3678;DHT22;1855;50.934;6.958;2024-03-17T09:48:14;10.90;99.90
3678;DHT22;1855;50.934;6.958;2024-03-17T09:50:41;11.10;99.90
3678;DHT22;1855;50.934;6.958;2024-03-17T09:53:16;11.20;99.90
3678;DHT22;1855;50.934;6.958;2024-03-17T09:55:43;11.30;99.90
3678;DHT22;1855;50.934;6.958;2024-03-17T09:58:15;11.40;99.90
3678;DHT22;1855;50.934;6.958;2024-03-17T10:00:44;11.60;99.90
3678;DHT22;1855;50.934;6.958;2024-03-17T10:03:11;11.80;99.90
3678;DHT22;1855;50.934;6.958;2024-03-17T10:05:38;11.80;99.90
3678;DHT22;1855;50.934;6.958;2024-03-17T10:08:06;12.00;99.90
3678;DHT22;1855;50.934;6.958;2024-03-17T10:10:34;12.20;99.90
3678;DHT22;1855;50.934;6.958;2024-03-17T10:13:01;12.50;99.90
3678;DHT22;1855;50.934;6.958;2024-03-17T10:15:27;12.70;99.90
3678;DHT22;1855;50.934;6.958;2024-03-17T10:17:56;12.70;99.10
3678;DHT22;1855;50.934;6.958;2024-03-17T10:20:24;12.70;99.20
3678;DHT22;1855;50.934;6.958;2024-03-17T10:23:01;12.60;99.30
3678;DHT22;1855;50.934;6.958;2024-03-17T10:25:30;12.70;99.70
3678;DHT22;1855;50.934;6.958;2024-03-17T10:27:57;12.50;97.90
3678;DHT22;1855;50.934;6.958;2024-03-17T10:30:24;12.50;97.40
3678;DHT22;1855;50.934;6.958;2024-03-17T10:32:57;12.40;99.30
3678;DHT22;1855;50.934;6.958;2024-03-17T10:35:28;12.60;99.90
3678;DHT22;1855;50.934;6.958;2024-03-17T10:37:57;12.80;98.10
3678;DHT22;1855;50.934;6.958;2024-03-17T10:40:25;12.90;96.70
3678;DHT22;1855;50.934;6.958;2024-03-17T10:42:52;13.00;94.30
3678;DHT22;1855;50.934;6.958;2024-03-17T10:45:19;13.00;92.60
3678;DHT22;1855;50.934;6.958;2024-03-17T10:47:48;13.00;92.00
3678;DHT22;1855;50.934;6.958;2024-03-17T10:50:19;13.10;92.40
3678;DHT22;1855;50.934;6.958;2024-03-17T10:52:47;13.20;93.60
3678;DHT22;1855;50.934;6.958;2024-03-17T10:55:23;13.20;92.20
3678;DHT22;1855;50.934;6.958;2024-03-17T10:57:51;13.40;93.10
3678;DHT22;1855;50.934;6.958;2024-03-17T11:00:20;13.50;92.30
3678;DHT22;1855;50.934;6.958;2024-03-17T11:02:49;13.50;90.40
3678;DHT22;1855;50.934;6.958;2024-03-17T11:05:20;13.50;88.40
3678;DHT22;1855;50.934;6.958;2024-03-17T11:07:49;13.40;88.80
3678;DHT22;1855;50.934;6.958;2024-03-17T11:10:19;13.40;90.30
3678;DHT22;1855;50.934;6.958;2024-03-17T11:12:49;13.20;92.50
3678;DHT22;1855;50.934;6.958;2024-03-17T11:15:38;13.30;90.80
3678;DHT22;1855;50.934;6.958;2024-03-17T11:18:34;13.40;91.20
3678;DHT22;1855;50.934;6.958;2024-03-17T11:21:07;13.70;90.20
3678;DHT22;1855;50.934;6.958;2024-03-17T11:23:36;14.10;90.40
3678;DHT22;1855;50.934;6.958;2024-03-17T11:26:07;14.60;83.40
3678;DHT22;1855;50.934;6.958;2024-03-17T11:28:54;14.90;80.30
3678;DHT22;1855;50.934;6.958;2024-03-17T11:31:39;15.20;76.70
3678;DHT22;1855;50.934;6.958;2024-03-17T11:34:31;15.40;75.90
3678;DHT22;1855;50.934;6.958;2024-03-17T11:37:01;15.60;75.70
3678;DHT22;1855;50.934;6.958;2024-03-17T11:39:48;15.80;73.20
3678;DHT22;1855;50.934;6.958;2024-03-17T11:42:16;15.80;72.20
3678;DHT22;1855;50.934;6.958;2024-03-17T11:44:43;15.70;72.20
3678;DHT22;1855;50.934;6.958;2024-03-17T11:47:10;15.80;72.90
3678;DHT22;1855;50.934;6.958;2024-03-17T11:49:37;16.00;71.70
3678;DHT22;1855;50.934;6.958;2024-03-17T11:52:10;16.20;71.40
3678;DHT22;1855;50.934;6.958;2024-03-17T11:54:37;16.20;71.00
3678;DHT22;1855;50.934;6.958;2024-03-17T11:57:06;16.20;70.20
3678;DHT22;1855;50.934;6.958;2024-03-17T11:59:32;16.20;69.90
3678;DHT22;1855;50.934;6.958;2024-03-17T12:02:00;16.10;69.50
3678;DHT22;1855;50.934;6.958;2024-03-17T12:04:26;16.10;69.50
3678;DHT22;1855;50.934;6.958;2024-03-17T12:06:55;15.90;70.10
3678;DHT22;1855;50.934;6.958;2024-03-17T12:09:24;15.90;70.70
3678;DHT22;1855;50.934;6.958;2024-03-17T12:11:59;15.80;69.40
3678;DHT22;1855;50.934;6.958;2024-03-17T12:14:25;15.70;70.00
3678;DHT22;1855;50.934;6.958;2024-03-17T12:16:53;15.50;71.00
3678;DHT22;1855;50.934;6.958;2024-03-17T12:19:20;15.40;71.40
3678;DHT22;1855;50.934;6.958;2024-03-17T12:21:48;15.20;72.10
3678;DHT22;1855;50.934;6.958;2024-03-17T12:24:17;15.10;72.90
3678;DHT22;1855;50.934;6.958;2024-03-17T12:26:46;14.90;73.70
3678;DHT22;1855;50.934;6.958;2024-03-17T12:29:24;14.80;74.80
3678;DHT22;1855;50.934;6.958;2024-03-17T12:31:51;14.80;75.50
3678;DHT22;1855;50.934;6.958;2024-03-17T12:34:18;14.70;75.80
3678;DHT22;1855;50.934;6.958;2024-03-17T12:36:45;14.70;76.40
3678;DHT22;1855;50.934;6.958;2024-03-17T12:39:18;14.80;77.10
3678;DHT22;1855;50.934;6.958;2024-03-17T12:41:45;14.80;76.20
3678;DHT22;1855;50.934;6.958;2024-03-17T12:44:22;14.80;76.20
3678;DHT22;1855;50.934;6.958;2024-03-17T12:46:54;14.80;76.70
3678;DHT22;1855;50.934;6.958;2024-03-17T12:49:22;14.80;76.20
3678;DHT22;1855;50.934;6.958;2024-03-17T12:51:50;14.90;77.00
3678;DHT22;1855;50.934;6.958;2024-03-17T12:54:20;14.90;76.10
3678;DHT22;1855;50.934;6.958;2024-03-17T12:56:48;14.90;77.00
3678;DHT22;1855;50.934;6.958;2024-03-17T12:59:42;15.00;77.30
3678;DHT22;1855;50.934;6.958;2024-03-17T13:02:41;14.90;75.60
3678;DHT22;1855;50.934;6.958;2024-03-17T13:05:13;15.00;75.10
3678;DHT22;1855;50.934;6.958;2024-03-17T13:07:40;15.10;74.40
3678;DHT22;1855;50.934;6.958;2024-03-17T13:10:08;14.90;74.30
3678;DHT22;1855;50.934;6.958;2024-03-17T13:12:35;14.90;74.60
3678;DHT22;1855;50.934;6.958;2024-03-17T13:15:02;14.80;74.50
3678;DHT22;1855;50.934;6.958;2024-03-17T13:17:30;14.90;75.20
3678;DHT22;1855;50.934;6.958;2024-03-17T13:19:59;14.80;74.60
3678;DHT22;1855;50.934;6.958;2024-03-17T13:22:26;14.60;74.90
3678;DHT22;1855;50.934;6.958;2024-03-17T13:24:52;14.50;75.80
3678;DHT22;1855;50.934;6.958;2024-03-17T13:27:19;14.40;76.40
3678;DHT22;1855;50.934;6.958;2024-03-17T13:29:49;14.40;77.50
3678;DHT22;1855;50.934;6.958;2024-03-17T13:32:15;14.50;78.20
3678;DHT22;1855;50.934;6.958;2024-03-17T13:34:43;14.50;79.90
3678;DHT22;1855;50.934;6.958;2024-03-17T13:37:09;14.50;79.70
3678;DHT22;1855;50.934;6.958;2024-03-17T13:39:36;14.60;80.10
3678;DHT22;1855;50.934;6.958;2024-03-17T13:42:03;14.50;79.50
3678;DHT22;1855;50.934;6.958;2024-03-17T13:44:31;14.50;80.80
3678;DHT22;1855;50.934;6.958;2024-03-17T13:47:00;14.50;80.50
3678;DHT22;1855;50.934;6.958;2024-03-17T13:49:29;14.50;78.70
3678;DHT22;1855;50.934;6.958;2024-03-17T13:51:56;14.50;79.30
3678;DHT22;1855;50.934;6.958;2024-03-17T13:54:23;14.50;80.80
3678;DHT22;1855;50.934;6.958;2024-03-17T13:56:50;14.50;80.80
3678;DHT22;1855;50.934;6.958;2024-03-17T13:59:17;14.40;79.50
3678;DHT22;1855;50.934;6.958;2024-03-17T14:01:44;14.40;81.90
3678;DHT22;1855;50.934;6.958;2024-03-17T14:04:14;14.40;79.80
3678;DHT22;1855;50.934;6.958;2024-03-17T14:06:41;14.30;81.00
3678;DHT22;1855;50.934;6.958;2024-03-17T14:09:08;14.30;81.60
3678;DHT22;1855;50.934;6.958;2024-03-17T14:11:36;14.30;81.60
3678;DHT22;1855;50.934;6.958;2024-03-17T14:14:04;14.30;84.00
3678;DHT22;1855;50.934;6.958;2024-03-17T14:16:31;14.30;84.30
3678;DHT22;1855;50.934;6.958;2024-03-17T14:18:58;14.30;85.40
3678;DHT22;1855;50.934;6.958;2024-03-17T14:21:26;14.30;84.90
3678;DHT22;1855;50.934;6.958;2024-03-17T14:23:53;14.30;86.10
3678;DHT22;1855;50.934;6.958;2024-03-17T14:26:20;14.30;85.30
3678;DHT22;1855;50.934;6.958;2024-03-17T14:28:47;14.30;86.10
3678;DHT22;1855;50.934;6.958;2024-03-17T14:31:15;14.40;88.00
3678;DHT22;1855;50.934;6.958;2024-03-17T14:33:42;14.60;84.90
3678;DHT22;1855;50.934;6.958;2024-03-17T14:36:09;14.70;83.20
3678;DHT22;1855;50.934;6.958;2024-03-17T14:38:37;14.80;81.50
3678;DHT22;1855;50.934;6.958;2024-03-17T14:41:04;14.80;80.00
3678;DHT22;1855;50.934;6.958;2024-03-17T14:43:31;15.00;81.10
3678;DHT22;1855;50.934;6.958;2024-03-17T14:46:03;15.20;81.10
3678;DHT22;1855;50.934;6.958;2024-03-17T14:48:30;15.40;78.10
3678;DHT22;1855;50.934;6.958;2024-03-17T14:50:57;15.40;76.80
3678;DHT22;1855;50.934;6.958;2024-03-17T14:53:24;15.50;76.20
3678;DHT22;1855;50.934;6.958;2024-03-17T14:55:52;15.50;75.10
3678;DHT22;1855;50.934;6.958;2024-03-17T14:58:19;15.50;74.60
3678;DHT22;1855;50.934;6.958;2024-03-17T15:00:46;15.80;76.60
3678;DHT22;1855;50.934;6.958;2024-03-17T15:03:13;16.20;73.50
3678;DHT22;1855;50.934;6.958;2024-03-17T15:05:40;16.80;70.90
3678;DHT22;1855;50.934;6.958;2024-03-17T15:08:07;17.20;68.50
3678;DHT22;1855;50.934;6.958;2024-03-17T15:10:35;17.50;67.80
3678;DHT22;1855;50.934;6.958;2024-03-17T15:13:03;17.90;65.40
3678;DHT22;1855;50.934;6.958;2024-03-17T15:15:30;18.20;61.80
3678;DHT22;1855;50.934;6.958;2024-03-17T15:17:57;18.30;60.10
3678;DHT22;1855;50.934;6.958;2024-03-17T15:20:23;18.20;60.20
3678;DHT22;1855;50.934;6.958;2024-03-17T15:22:51;18.40;59.80
3678;DHT22;1855;50.934;6.958;2024-03-17T15:25:18;18.80;59.40
3678;DHT22;1855;50.934;6.958;2024-03-17T15:27:47;18.60;57.60
3678;DHT22;1855;50.934;6.958;2024-03-17T15:30:16;18.50;57.30
3678;DHT22;1855;50.934;6.958;2024-03-17T15:32:44;18.30;57.60
3678;DHT22;1855;50.934;6.958;2024-03-17T15:35:11;18.00;58.60
3678;DHT22;1855;50.934;6.958;2024-03-17T15:37:39;17.50;59.80
3678;DHT22;1855;50.934;6.958;2024-03-17T15:40:07;17.10;60.50
3678;DHT22;1855;50.934;6.958;2024-03-17T15:42:33;16.60;62.60
3678;DHT22;1855;50.934;6.958;2024-03-17T15:45:00;16.30;64.60
3678;DHT22;1855;50.934;6.958;2024-03-17T15:47:29;16.10;66.00
3678;DHT22;1855;50.934;6.958;2024-03-17T15:49:55;15.70;67.10
3678;DHT22;1855;50.934;6.958;2024-03-17T15:52:21;15.30;68.50
3678;DHT22;1855;50.934;6.958;2024-03-17T15:54:48;15.10;69.40
3678;DHT22;1855;50.934;6.958;2024-03-17T15:57:15;15.00;70.50
3678;DHT22;1855;50.934;6.958;2024-03-17T15:59:42;15.20;72.10
3678;DHT22;1855;50.934;6.958;2024-03-17T16:02:12;15.60;70.20
3678;DHT22;1855;50.934;6.958;2024-03-17T16:04:40;15.80;68.70
3678;DHT22;1855;50.934;6.958;2024-03-17T16:07:08;15.70;69.30
3678;DHT22;1855;50.934;6.958;2024-03-17T16:09:35;15.60;69.60
3678;DHT22;1855;50.934;6.958;2024-03-17T16:12:02;15.50;70.30
3678;DHT22;1855;50.934;6.958;2024-03-17T16:14:29;15.40;71.00
3678;DHT22;1855;50.934;6.958;2024-03-17T16:16:55;15.20;72.20
3678;DHT22;1855;50.934;6.958;2024-03-17T16:19:23;15.30;72.40
3678;DHT22;1855;50.934;6.958;2024-03-17T16:21:51;15.30;72.90
3678;DHT22;1855;50.934;6.958;2024-03-17T16:24:18;15.40;72.50
3678;DHT22;1855;50.934;6.958;2024-03-17T16:26:45;15.50;72.30
3678;DHT22;1855;50.934;6.958;2024-03-17T16:29:12;15.50;71.60
3678;DHT22;1855;50.934;6.958;2024-03-17T16:31:41;15.40;72.30
3678;DHT22;1855;50.934;6.958;2024-03-17T16:34:08;15.10;73.80
3678;DHT22;1855;50.934;6.958;2024-03-17T16:36:37;14.90;76.00
3678;DHT22;1855;50.934;6.958;2024-03-17T16:39:07;14.70;76.90
3678;DHT22;1855;50.934;6.958;2024-03-17T16:41:36;14.50;82.00
3678;DHT22;1855;50.934;6.958;2024-03-17T16:44:05;14.40;84.60
3678;DHT22;1855;50.934;6.958;2024-03-17T16:49:29;14.20;90.60
3678;DHT22;1855;50.934;6.958;2024-03-17T16:51:57;14.10;91.60
3678;DHT22;1855;50.934;6.958;2024-03-17T16:54:26;14.10;92.80
3678;DHT22;1855;50.934;6.958;2024-03-17T16:56:53;14.00;92.90
3678;DHT22;1855;50.934;6.958;2024-03-17T16:59:20;14.00;94.10
3678;DHT22;1855;50.934;6.958;2024-03-17T17:01:48;14.00;94.40
3678;DHT22;1855;50.934;6.958;2024-03-17T17:04:15;13.90;96.00
3678;DHT22;1855;50.934;6.958;2024-03-17T17:06:42;13.80;96.00
3678;DHT22;1855;50.934;6.958;2024-03-17T17:09:08;13.80;96.50
3678;DHT22;1855;50.934;6.958;2024-03-17T17:11:38;13.80;97.00
3678;DHT22;1855;50.934;6.958;2024-03-17T17:14:05;13.70;96.80
3678;DHT22;1855;50.934;6.958;2024-03-17T17:16:33;13.60;97.60
3678;DHT22;1855;50.934;6.958;2024-03-17T17:19:02;13.60;98.10
3678;DHT22;1855;50.934;6.958;2024-03-17T17:21:30;13.60;98.10
3678;DHT22;1855;50.934;6.958;2024-03-17T17:23:58;13.50;98.90
3678;DHT22;1855;50.934;6.958;2024-03-17T17:26:26;13.50;98.60
3678;DHT22;1855;50.934;6.958;2024-03-17T17:28:55;13.50;98.90
3678;DHT22;1855;50.934;6.958;2024-03-17T17:31:23;13.40;98.60
3678;DHT22;1855;50.934;6.958;2024-03-17T17:33:50;13.40;98.70
3678;DHT22;1855;50.934;6.958;2024-03-17T17:36:17;13.40;98.90
3678;DHT22;1855;50.934;6.958;2024-03-17T17:38:44;13.30;98.90
3678;DHT22;1855;50.934;6.958;2024-03-17T17:41:11;13.30;98.20
3678;DHT22;1855;50.934;6.958;2024-03-17T17:43:40;13.20;97.80
3678;DHT22;1855;50.934;6.958;2024-03-17T17:46:09;13.20;97.30
3678;DHT22;1855;50.934;6.958;2024-03-17T17:48:36;13.20;96.80
3678;DHT22;1855;50.934;6.958;2024-03-17T17:51:04;13.10;96.20
3678;DHT22;1855;50.934;6.958;2024-03-17T17:53:32;13.10;94.50
3678;DHT22;1855;50.934;6.958;2024-03-17T17:55:59;13.10;94.10
3678;DHT22;1855;50.934;6.958;2024-03-17T17:58:26;13.00;94.00
3678;DHT22;1855;50.934;6.958;2024-03-17T18:00:57;13.00;92.50
3678;DHT22;1855;50.934;6.958;2024-03-17T18:03:25;13.00;91.20
3678;DHT22;1855;50.934;6.958;2024-03-17T18:05:52;13.00;89.60
3678;DHT22;1855;50.934;6.958;2024-03-17T18:08:19;13.00;88.80
3678;DHT22;1855;50.934;6.958;2024-03-17T18:10:46;12.90;88.20
3678;DHT22;1855;50.934;6.958;2024-03-17T18:13:13;12.90;86.20
3678;DHT22;1855;50.934;6.958;2024-03-17T18:15:39;12.80;87.60
3678;DHT22;1855;50.934;6.958;2024-03-17T18:18:06;12.80;87.00
3678;DHT22;1855;50.934;6.958;2024-03-17T18:20:35;12.80;86.10
3678;DHT22;1855;50.934;6.958;2024-03-17T18:23:02;12.80;86.40
3678;DHT22;1855;50.934;6.958;2024-03-17T18:25:29;12.80;85.60
3678;DHT22;1855;50.934;6.958;2024-03-17T18:27:58;12.70;87.50
3678;DHT22;1855;50.934;6.958;2024-03-17T18:30:25;12.70;87.60
3678;DHT22;1855;50.934;6.958;2024-03-17T18:32:53;12.60;87.20
3678;DHT22;1855;50.934;6.958;2024-03-17T18:35:23;12.60;88.50
3678;DHT22;1855;50.934;6.958;2024-03-17T18:37:51;12.60;90.50
3678;DHT22;1855;50.934;6.958;2024-03-17T18:40:19;12.60;90.10
3678;DHT22;1855;50.934;6.958;2024-03-17T18:42:46;12.60;90.30
3678;DHT22;1855;50.934;6.958;2024-03-17T18:45:15;12.50;91.60
3678;DHT22;1855;50.934;6.958;2024-03-17T18:47:43;12.50;91.70
3678;DHT22;1855;50.934;6.958;2024-03-17T18:50:11;12.50;92.70
3678;DHT22;1855;50.934;6.958;2024-03-17T18:52:38;12.50;93.20
3678;DHT22;1855;50.934;6.958;2024-03-17T18:55:06;12.40;93.60
3678;DHT22;1855;50.934;6.958;2024-03-17T18:57:34;12.40;94.20
3678;DHT22;1855;50.934;6.958;2024-03-17T19:00:02;12.40;94.50
3678;DHT22;1855;50.934;6.958;2024-03-17T19:02:30;12.40;95.10
3678;DHT22;1855;50.934;6.958;2024-03-17T19:04:57;12.40;99.90
3678;DHT22;1855;50.934;6.958;2024-03-17T19:07:25;12.30;99.90
3678;DHT22;1855;50.934;6.958;2024-03-17T19:09:55;12.20;99.90
3678;DHT22;1855;50.934;6.958;2024-03-17T19:12:23;11.90;99.90
3678;DHT22;1855;50.934;6.958;2024-03-17T19:14:50;11.70;99.90
3678;DHT22;1855;50.934;6.958;2024-03-17T19:17:17;11.60;99.90
3678;DHT22;1855;50.934;6.958;2024-03-17T19:19:43;11.50;99.90
3678;DHT22;1855;50.934;6.958;2024-03-17T19:22:11;11.30;99.90
3678;DHT22;1855;50.934;6.958;2024-03-17T19:24:38;11.30;99.90
3678;DHT22;1855;50.934;6.958;2024-03-17T19:27:05;11.30;99.90
3678;DHT22;1855;50.934;6.958;2024-03-17T19:29:33;11.30;99.90
3678;DHT22;1855;50.934;6.958;2024-03-17T19:32:00;11.40;99.90
3678;DHT22;1855;50.934;6.958;2024-03-17T19:34:27;11.40;99.90
3678;DHT22;1855;50.934;6.958;2024-03-17T19:36:53;11.40;99.90
3678;DHT22;1855;50.934;6.958;2024-03-17T19:39:20;11.50;99.90
3678;DHT22;1855;50.934;6.958;2024-03-17T19:41:47;11.50;99.90
3678;DHT22;1855;50.934;6.958;2024-03-17T19:44:14;11.50;99.90
3678;DHT22;1855;50.934;6.958;2024-03-17T19:46:42;11.50;99.90
3678;DHT22;1855;50.934;6.958;2024-03-17T19:49:09;11.50;99.90
3678;DHT22;1855;50.934;6.958;2024-03-17T19:51:36;11.50;99.90
3678;DHT22;1855;50.934;6.958;2024-03-17T19:54:02;11.50;99.90
3678;DHT22;1855;50.934;6.958;2024-03-17T19:56:30;11.50;99.90
3678;DHT22;1855;50.934;6.958;2024-03-17T19:58:57;11.50;99.90
3678;DHT22;1855;50.934;6.958;2024-03-17T20:01:24;11.50;99.90
3678;DHT22;1855;50.934;6.958;2024-03-17T20:03:52;11.40;99.90
3678;DHT22;1855;50.934;6.958;2024-03-17T20:06:20;11.50;99.90
3678;DHT22;1855;50.934;6.958;2024-03-17T20:08:47;11.50;99.90
3678;DHT22;1855;50.934;6.958;2024-03-17T20:11:15;11.50;99.90
3678;DHT22;1855;50.934;6.958;2024-03-17T20:13:43;11.50;99.90
3678;DHT22;1855;50.934;6.958;2024-03-17T20:16:15;11.50;99.90
3678;DHT22;1855;50.934;6.958;2024-03-17T20:18:44;11.40;99.90
3678;DHT22;1855;50.934;6.958;2024-03-17T20:21:12;11.40;99.90
3678;DHT22;1855;50.934;6.958;2024-03-17T20:23:39;11.40;99.90
3678;DHT22;1855;50.934;6.958;2024-03-17T20:26:06;11.40;99.90
3678;DHT22;1855;50.934;6.958;2024-03-17T20:28:35;11.50;99.90
3678;DHT22;1855;50.934;6.958;2024-03-17T20:31:02;11.40;99.90
3678;DHT22;1855;50.934;6.958;2024-03-17T20:33:29;11.40;99.90
3678;DHT22;1855;50.934;6.958;2024-03-17T20:35:56;11.40;99.90
3678;DHT22;1855;50.934;6.958;2024-03-17T20:38:24;11.40;99.90
3678;DHT22;1855;50.934;6.958;2024-03-17T20:40:51;11.40;99.90
3678;DHT22;1855;50.934;6.958;2024-03-17T20:43:18;11.40;99.90
3678;DHT22;1855;50.934;6.958;2024-03-17T20:45:44;11.30;99.90
3678;DHT22;1855;50.934;6.958;2024-03-17T20:48:11;11.30;99.90
3678;DHT22;1855;50.934;6.958;2024-03-17T20:50:38;11.30;99.90
3678;DHT22;1855;50.934;6.958;2024-03-17T20:53:04;11.30;99.90
3678;DHT22;1855;50.934;6.958;2024-03-17T20:55:34;11.40;99.90
3678;DHT22;1855;50.934;6.958;2024-03-17T20:58:00;11.40;99.90
3678;DHT22;1855;50.934;6.958;2024-03-17T21:00:27;11.40;99.90
3678;DHT22;1855;50.934;6.958;2024-03-17T21:02:55;11.40;99.90
3678;DHT22;1855;50.934;6.958;2024-03-17T21:05:23;11.40;99.90
3678;DHT22;1855;50.934;6.958;2024-03-17T21:07:50;11.40;99.90
3678;DHT22;1855;50.934;6.958;2024-03-17T21:10:17;11.40;99.90
3678;DHT22;1855;50.934;6.958;2024-03-17T21:12:47;11.40;99.90
3678;DHT22;1855;50.934;6.958;2024-03-17T21:15:15;11.40;99.90
3678;DHT22;1855;50.934;6.958;2024-03-17T21:17:43;11.30;99.90
3678;DHT22;1855;50.934;6.958;2024-03-17T21:20:12;11.40;99.90
3678;DHT22;1855;50.934;6.958;2024-03-17T21:22:40;11.40;99.90
3678;DHT22;1855;50.934;6.958;2024-03-17T21:25:08;11.40;99.90
3678;DHT22;1855;50.934;6.958;2024-03-17T21:27:35;11.30;99.90
3678;DHT22;1855;50.934;6.958;2024-03-17T21:30:05;11.30;99.90
3678;DHT22;1855;50.934;6.958;2024-03-17T21:32:32;11.30;99.90
3678;DHT22;1855;50.934;6.958;2024-03-17T21:34:59;11.30;99.90
3678;DHT22;1855;50.934;6.958;2024-03-17T21:37:27;11.30;99.90
3678;DHT22;1855;50.934;6.958;2024-03-17T21:39:54;11.20;99.90
3678;DHT22;1855;50.934;6.958;2024-03-17T21:42:22;11.20;99.90